Terminal Aerodrome Forecast
Issued by NWS Austin/San Antonio, TX

Home | Current Version | Previous Version | Text Only | Print | Product List | Glossary On
Versions: 1 2 3 4 5 6 7 8 9 10 11 12 13 14 15 16 17 18 19
000
FTUS44 KEWX 261903 AAA
TAFSAT
TAF AMD
KSAT 261903Z 2619/2724 18007KT P6SM VCSH OVC015
     FM262100 16008KT P6SM VCTS OVC025CB
     FM270100 14006KT P6SM VCTS OVC012CB
     FM271000 17005KT 2SM BR OVC003
     FM271600 18008KT P6SM OVC020=

USA.gov is the U.S. government's official web portal to all federal, state and local government web resources and services.